Time;durP1;ratioP1;P1;durP2;ratioP2;P2;SDS_P1;SDS_P2;PMS_P1;PMS_P2;Temp;Humidity;BMP_temperature;BMP_pressure;BME280_temperature;BME280_humidity;BME280_pressure;Samples;Min_cycle;Max_cycle;Signal;HPM_P1;HPM_P2
2022/03/12 00:02:12;;;;;;;23.30;9.20;;;-0.30;1.00;;;;;;5055463;28;20669;-86
2022/03/12 00:04:41;;;;;;;20.83;9.37;;;-0.30;1.00;;;;;;5055606;28;20243;-86
2022/03/12 00:07:09;;;;;;;22.47;9.20;;;-0.30;1.00;;;;;;5055343;28;20189;-85
2022/03/12 00:09:36;;;;;;;19.13;7.47;;;-0.30;1.00;;;;;;5055064;28;20216;-87
2022/03/12 00:12:04;;;;;;;18.73;9.37;;;-0.30;1.00;;;;;;5055533;28;20258;-86
2022/03/12 00:14:32;;;;;;;22.13;9.47;;;-0.30;1.00;;;;;;5055215;28;20556;-86
2022/03/12 00:16:59;;;;;;;19.53;8.23;;;-0.30;1.00;;;;;;5055272;28;20192;-86
2022/03/12 00:19:27;;;;;;;26.23;10.07;;;-0.30;1.00;;;;;;5054954;28;20653;-85
2022/03/12 00:21:55;;;;;;;17.80;8.57;;;-0.30;1.00;;;;;;5055087;28;20688;-86
2022/03/12 00:24:27;;;;;;;21.87;8.60;;;-0.30;1.00;;;;;;5055132;28;20198;-86
2022/03/12 00:26:53;;;;;;;17.63;8.80;;;-0.30;1.00;;;;;;5054782;28;20705;-85
2022/03/12 00:29:20;;;;;;;17.47;8.83;;;-0.30;1.00;;;;;;5054601;28;20550;-86
2022/03/12 00:31:50;;;;;;;19.73;7.97;;;-0.30;1.00;;;;;;5055154;28;20193;-85
2022/03/12 00:34:20;;;;;;;26.13;9.10;;;-0.40;1.00;;;;;;5055007;28;20645;-86
2022/03/12 00:36:49;;;;;;;18.63;8.80;;;-0.40;1.00;;;;;;5054798;28;20189;-86
2022/03/12 00:39:17;;;;;;;17.90;9.07;;;-0.30;1.00;;;;;;5054874;28;20239;-86
2022/03/12 00:41:44;;;;;;;19.30;8.30;;;-0.40;1.00;;;;;;5054688;28;20200;-86
2022/03/12 00:44:13;;;;;;;22.50;8.77;;;-0.40;1.00;;;;;;5054721;28;20572;-86
2022/03/12 00:46:40;;;;;;;19.70;8.17;;;-0.40;1.00;;;;;;5054868;28;20200;-86
2022/03/12 00:49:07;;;;;;;14.93;7.07;;;-0.40;1.00;;;;;;5054695;28;20224;-86
2022/03/12 00:51:34;;;;;;;18.33;8.50;;;-0.50;1.00;;;;;;5054721;28;20247;-84
2022/03/12 00:54:02;;;;;;;23.70;8.43;;;-0.50;1.00;;;;;;5054260;28;20188;-86
2022/03/12 00:56:29;;;;;;;21.53;8.30;;;-0.50;1.00;;;;;;5054238;28;20707;-86
2022/03/12 00:58:57;;;;;;;19.63;9.03;;;-0.50;1.00;;;;;;5054246;28;20204;-86
2022/03/12 01:01:26;;;;;;;19.33;8.63;;;-0.50;1.00;;;;;;5054704;28;20197;-86
2022/03/12 01:03:53;;;;;;;18.27;8.13;;;-0.50;1.00;;;;;;5054394;28;20195;-85
2022/03/12 01:06:20;;;;;;;19.37;8.33;;;-0.60;1.00;;;;;;5054594;28;20192;-86
2022/03/12 01:08:48;;;;;;;15.90;7.70;;;-0.60;1.00;;;;;;5054559;28;20220;-85
2022/03/12 01:11:16;;;;;;;16.40;8.50;;;-0.60;1.00;;;;;;5054210;28;20649;-87
2022/03/12 01:13:43;;;;;;;21.70;8.93;;;-0.60;1.00;;;;;;5054019;28;20247;-86
2022/03/12 01:16:10;;;;;;;16.60;8.27;;;-0.60;1.00;;;;;;5054226;28;20199;-86
2022/03/12 01:18:39;;;;;;;17.40;7.60;;;-0.60;1.00;;;;;;5054081;28;20232;-86
2022/03/12 01:21:09;;;;;;;17.73;8.57;;;-0.60;1.00;;;;;;5054134;28;20608;-86
2022/03/12 01:23:35;;;;;;;17.63;7.97;;;-0.60;1.00;;;;;;5053674;28;20196;-86
2022/03/12 01:26:03;;;;;;;18.00;8.40;;;-0.60;1.00;;;;;;5054089;28;20209;-85
2022/03/12 01:28:31;;;;;;;23.37;10.03;;;-0.60;1.00;;;;;;5053946;28;20250;-86
2022/03/12 01:30:58;;;;;;;21.53;9.23;;;-0.70;1.00;;;;;;5053899;28;20192;-86
2022/03/12 01:33:25;;;;;;;12.30;6.67;;;-0.70;1.00;;;;;;5053588;28;20192;-86
2022/03/12 01:35:52;;;;;;;17.50;7.20;;;-0.70;1.00;;;;;;5053766;28;20197;-86
2022/03/12 01:38:30;;;;;;;15.43;7.67;;;-0.70;1.00;;;;;;5054130;28;20200;-86
2022/03/12 01:41:02;;;;;;;19.37;8.83;;;-0.70;1.00;;;;;;5053838;28;20192;-86
2022/03/12 01:43:32;;;;;;;19.00;9.10;;;-0.70;1.00;;;;;;5053217;28;20530;-85
2022/03/12 01:46:01;;;;;;;22.10;8.23;;;-0.70;1.00;;;;;;5053424;28;20231;-86
2022/03/12 01:48:29;;;;;;;20.80;8.50;;;-0.80;1.00;;;;;;5053464;28;20216;-86
2022/03/12 01:50:57;;;;;;;18.50;8.27;;;-0.70;1.00;;;;;;5053590;28;20203;-84
2022/03/12 01:53:27;;;;;;;18.20;8.47;;;-0.80;1.00;;;;;;5053152;28;20201;-86
2022/03/12 01:55:55;;;;;;;16.13;6.97;;;-0.80;1.00;;;;;;5053499;28;20700;-86
2022/03/12 01:58:24;;;;;;;22.77;9.40;;;-0.80;1.00;;;;;;5053659;28;20196;-85
2022/03/12 02:00:57;;;;;;;15.03;7.00;;;-0.90;1.00;;;;;;5053339;28;20633;-86
2022/03/12 02:03:29;;;;;;;19.30;8.10;;;-0.90;1.00;;;;;;5052610;28;20637;-86
2022/03/12 02:05:56;;;;;;;21.13;8.60;;;-0.90;1.00;;;;;;5052422;28;20276;-86
2022/03/12 02:08:24;;;;;;;17.67;7.70;;;-0.90;1.00;;;;;;5053258;28;20209;-86
2022/03/12 02:10:58;;;;;;;19.13;8.47;;;-1.00;1.00;;;;;;5053003;28;20582;-86
2022/03/12 02:13:25;;;;;;;22.87;8.83;;;-1.00;1.00;;;;;;5052615;28;20180;-86
2022/03/12 02:16:06;;;;;;;24.57;11.33;;;-1.00;1.00;;;;;;5053166;28;20220;-85
2022/03/12 02:18:34;;;;;;;31.03;13.23;;;-1.10;1.00;;;;;;5052859;28;20234;-87
2022/03/12 02:21:01;;;;;;;20.63;8.87;;;-1.10;1.00;;;;;;5052668;28;20299;-86
2022/03/12 02:23:28;;;;;;;22.00;9.63;;;-1.10;1.00;;;;;;5052975;28;20184;-85
2022/03/12 02:26:03;;;;;;;22.20;10.63;;;-1.10;1.00;;;;;;5052909;28;20238;-86
2022/03/12 02:28:30;;;;;;;24.63;11.73;;;-1.10;1.00;;;;;;5052594;28;20676;-85
2022/03/12 02:30:58;;;;;;;19.63;10.80;;;-1.10;1.00;;;;;;5052636;28;20188;-86
2022/03/12 02:33:28;;;;;;;22.07;9.30;;;-1.20;1.00;;;;;;5052779;28;20283;-86
2022/03/12 02:35:56;;;;;;;20.87;10.97;;;-1.20;1.00;;;;;;5052921;28;20196;-86
2022/03/12 02:38:24;;;;;;;27.47;9.80;;;-1.20;1.00;;;;;;5052683;28;20196;-86
2022/03/12 02:40:52;;;;;;;24.03;10.90;;;-1.30;1.00;;;;;;5052346;28;20200;-85
2022/03/12 02:43:26;;;;;;;21.13;9.53;;;-1.30;1.00;;;;;;5052935;28;20189;-86
2022/03/12 02:45:56;;;;;;;26.37;9.80;;;-1.30;1.00;;;;;;5052703;28;20265;-86
2022/03/12 02:48:24;;;;;;;20.90;8.77;;;-1.30;1.00;;;;;;5052832;28;20236;-85
2022/03/12 02:50:52;;;;;;;20.73;8.73;;;-1.30;1.00;;;;;;5051171;28;20273;-86
2022/03/12 02:53:20;;;;;;;20.50;7.90;;;-1.30;1.00;;;;;;5048652;28;20246;-86
2022/03/12 02:55:47;;;;;;;27.57;9.17;;;-1.40;1.00;;;;;;5052587;28;20600;-86
2022/03/12 02:58:16;;;;;;;24.13;8.27;;;-1.40;1.00;;;;;;5052326;28;20196;-86
2022/03/12 03:00:44;;;;;;;17.27;7.77;;;-1.40;1.00;;;;;;5052137;28;20645;-86
2022/03/12 03:03:12;;;;;;;21.00;9.67;;;-1.40;1.00;;;;;;5052202;28;20711;-86
2022/03/12 03:05:46;;;;;;;24.70;9.07;;;-1.40;1.00;;;;;;5052582;28;20201;-86
2022/03/12 03:08:18;;;;;;;19.63;8.00;;;-1.40;1.00;;;;;;5052037;28;20293;-86
2022/03/12 03:10:48;;;;;;;19.20;8.83;;;-1.40;1.00;;;;;;5052161;28;20196;-86
2022/03/12 03:13:36;;;;;;;18.40;7.73;;;-1.40;1.00;;;;;;5052500;28;20185;-86
2022/03/12 03:16:09;;;;;;;17.40;7.77;;;-1.40;1.00;;;;;;5052502;28;20189;-86
2022/03/12 03:18:39;;;;;;;18.47;8.60;;;-1.40;1.00;;;;;;5053154;28;20193;-86
2022/03/12 03:21:11;;;;;;;22.10;8.70;;;-1.40;1.00;;;;;;5055911;28;20216;-86
2022/03/12 03:23:38;;;;;;;22.33;9.67;;;-1.40;1.00;;;;;;5056132;28;20184;-86
2022/03/12 03:26:06;;;;;;;23.83;9.70;;;-1.40;1.00;;;;;;5056291;28;20250;-86
2022/03/12 03:28:34;;;;;;;13.77;5.80;;;-1.40;1.00;;;;;;5056273;28;20278;-86
2022/03/12 03:31:01;;;;;;;19.80;9.73;;;-1.40;1.00;;;;;;5055780;28;20645;-86
2022/03/12 03:33:29;;;;;;;27.27;10.90;;;-1.50;1.00;;;;;;5056068;28;20196;-86
2022/03/12 03:35:56;;;;;;;18.93;8.90;;;-1.50;1.00;;;;;;5055851;28;20200;-85
2022/03/12 03:38:23;;;;;;;21.77;10.17;;;-1.50;1.00;;;;;;5055783;28;20196;-86
2022/03/12 03:40:51;;;;;;;20.23;9.70;;;-1.50;1.00;;;;;;5056449;28;20196;-86
2022/03/12 03:43:21;;;;;;;24.73;10.70;;;-1.50;1.00;;;;;;5055962;28;20197;-86
2022/03/12 03:45:50;;;;;;;22.23;10.03;;;-1.50;1.00;;;;;;5055963;28;20234;-86
2022/03/12 03:48:19;;;;;;;21.93;8.77;;;-1.50;1.00;;;;;;5055510;28;20197;-85
2022/03/12 03:50:49;;;;;;;15.50;7.20;;;-1.50;1.00;;;;;;5056272;28;20197;-86
2022/03/12 03:53:18;;;;;;;18.23;7.53;;;-1.50;1.00;;;;;;5056362;28;20633;-86
2022/03/12 03:55:46;;;;;;;25.83;8.67;;;-1.50;1.00;;;;;;5055753;28;20188;-86
2022/03/12 03:58:14;;;;;;;22.60;9.80;;;-1.60;1.00;;;;;;5055456;28;20598;-86
2022/03/12 04:00:52;;;;;;;24.13;9.57;;;-1.60;1.00;;;;;;5055472;28;20204;-87
2022/03/12 04:03:19;;;;;;;21.90;8.17;;;-1.60;1.00;;;;;;5055723;28;20208;-86
2022/03/12 04:05:48;;;;;;;20.37;8.33;;;-1.60;1.00;;;;;;5055634;28;20287;-86
2022/03/12 04:08:15;;;;;;;17.60;9.63;;;-1.60;1.00;;;;;;5054965;28;20226;-86
2022/03/12 04:10:42;;;;;;;23.87;9.70;;;-1.60;1.00;;;;;;5055575;28;20196;-85
2022/03/12 04:13:15;;;;;;;20.47;10.77;;;-1.60;1.00;;;;;;5055307;28;20310;-86
2022/03/12 04:15:42;;;;;;;19.50;8.73;;;-1.60;1.00;;;;;;5055476;28;20242;-86
2022/03/12 04:18:10;;;;;;;16.60;7.93;;;-1.60;1.00;;;;;;5054560;28;20557;-86
2022/03/12 04:20:38;;;;;;;20.13;8.93;;;-1.60;1.00;;;;;;5055158;28;20629;-86
2022/03/12 04:23:07;;;;;;;18.53;7.77;;;-1.60;1.00;;;;;;5055343;28;20192;-85
2022/03/12 04:25:35;;;;;;;22.03;8.87;;;-1.60;1.00;;;;;;5054911;28;20196;-86
2022/03/12 04:28:03;;;;;;;20.53;9.40;;;-1.60;1.00;;;;;;5054836;28;20196;-86
2022/03/12 04:30:31;;;;;;;21.77;9.43;;;-1.70;1.00;;;;;;5054197;28;20212;-87
2022/03/12 04:32:57;;;;;;;20.67;9.60;;;-1.70;1.00;;;;;;5054916;28;20200;-86
2022/03/12 04:35:25;;;;;;;22.67;8.60;;;-1.70;1.00;;;;;;5055189;28;20185;-85
2022/03/12 04:37:52;;;;;;;23.13;9.07;;;-1.70;1.00;;;;;;5055022;28;20296;-86
2022/03/12 04:40:24;;;;;;;23.00;9.73;;;-1.70;1.00;;;;;;5054872;28;20193;-86
2022/03/12 04:42:52;;;;;;;22.03;8.77;;;-1.70;1.00;;;;;;5055354;28;20200;-86
2022/03/12 04:45:21;;;;;;;17.97;8.60;;;-1.70;1.00;;;;;;5054477;28;20272;-86
2022/03/12 04:47:50;;;;;;;21.97;9.47;;;-1.70;1.00;;;;;;5054584;28;20197;-86
2022/03/12 04:50:19;;;;;;;18.70;8.47;;;-1.70;1.00;;;;;;5072278;28;20235;-86
2022/03/12 04:52:48;;;;;;;24.27;9.77;;;-1.70;1.00;;;;;;5054728;28;20262;-86
2022/03/12 04:55:17;;;;;;;19.47;9.00;;;-1.70;1.00;;;;;;5054072;28;20200;-85
2022/03/12 04:57:46;;;;;;;18.27;8.53;;;-1.70;1.00;;;;;;5054534;28;20188;-86
2022/03/12 05:00:18;;;;;;;20.53;9.13;;;-1.70;1.00;;;;;;5054592;28;20283;-86
2022/03/12 05:02:45;;;;;;;20.27;8.03;;;-1.70;1.00;;;;;;5054620;28;20234;-86
2022/03/12 05:05:14;;;;;;;24.70;9.40;;;-1.70;1.00;;;;;;5053997;28;20703;-87
2022/03/12 05:07:44;;;;;;;22.17;9.77;;;-1.70;1.00;;;;;;5054531;28;20695;-87
2022/03/12 05:10:11;;;;;;;26.17;9.17;;;-1.80;1.00;;;;;;5054323;28;20208;-86
2022/03/12 05:12:39;;;;;;;16.80;7.80;;;-1.80;1.00;;;;;;5053746;28;20195;-86
2022/03/12 05:15:14;;;;;;;19.77;9.17;;;-1.80;1.00;;;;;;5054290;28;20185;-85
2022/03/12 05:17:43;;;;;;;20.33;8.27;;;-1.80;1.00;;;;;;5054012;28;20180;-86
2022/03/12 05:20:13;;;;;;;24.47;7.83;;;-1.80;1.00;;;;;;5053649;28;20667;-86
2022/03/12 05:22:40;;;;;;;20.23;8.43;;;-1.80;1.00;;;;;;5053700;28;20181;-86
2022/03/12 05:25:11;;;;;;;20.63;8.97;;;-1.80;1.00;;;;;;5055026;28;20409;-88
2022/03/12 05:27:38;;;;;;;23.90;10.37;;;-1.80;1.00;;;;;;5055839;28;20637;-86
2022/03/12 05:30:08;;;;;;;21.37;9.13;;;-1.80;1.00;;;;;;5058178;28;20689;-85
2022/03/12 05:32:36;;;;;;;26.87;9.23;;;-1.80;1.00;;;;;;5055801;28;20216;-86
2022/03/12 05:35:03;;;;;;;23.50;9.30;;;-1.80;1.00;;;;;;5056249;28;20192;-85
2022/03/12 05:37:30;;;;;;;21.57;9.37;;;-1.80;1.00;;;;;;5063071;28;20196;-86
2022/03/12 05:39:57;;;;;;;19.67;8.67;;;-1.70;1.00;;;;;;5058011;28;20665;-86
2022/03/12 05:42:24;;;;;;;21.00;9.53;;;-1.80;1.00;;;;;;5061155;28;20195;-85
2022/03/12 05:44:56;;;;;;;20.63;8.80;;;-1.70;1.00;;;;;;5062235;28;20608;-88
2022/03/12 05:47:36;;;;;;;17.13;8.23;;;-1.70;1.00;;;;;;5059702;28;20197;-85
2022/03/12 05:50:06;;;;;;;20.97;8.43;;;-1.70;1.00;;;;;;5062503;28;20224;-85
2022/03/12 05:52:33;;;;;;;19.57;9.33;;;-1.70;1.00;;;;;;5060783;28;20196;-84
2022/03/12 05:55:06;;;;;;;21.00;9.23;;;-1.60;1.00;;;;;;5061593;28;20192;-90
2022/03/12 05:57:33;;;;;;;21.57;8.30;;;-1.60;1.00;;;;;;5057325;28;20185;-86
2022/03/12 06:00:02;;;;;;;22.37;9.67;;;-1.60;1.00;;;;;;5058471;28;20246;-86
2022/03/12 06:02:31;;;;;;;15.90;6.70;;;-1.50;1.00;;;;;;5057229;28;20197;-85
2022/03/12 06:04:59;;;;;;;19.13;8.40;;;-1.40;1.00;;;;;;5059895;28;20196;-86
2022/03/12 06:07:29;;;;;;;19.93;8.10;;;-0.90;1.00;;;;;;5057586;28;20196;-88
2022/03/12 06:09:56;;;;;;;21.33;9.40;;;0.10;1.00;;;;;;5053248;28;20213;-87
2022/03/12 06:12:24;;;;;;;20.57;8.87;;;1.20;1.00;;;;;;5055683;28;20586;-85
2022/03/12 06:14:55;;;;;;;21.13;9.57;;;2.10;1.00;;;;;;5055078;28;20227;-85
2022/03/12 06:17:24;;;;;;;24.70;9.07;;;2.90;1.00;;;;;;5056764;28;20218;-87
2022/03/12 06:19:53;;;;;;;20.87;8.93;;;3.80;1.00;;;;;;5056598;28;20189;-86
2022/03/12 06:22:21;;;;;;;21.73;9.53;;;4.70;1.00;;;;;;5056529;28;20267;-85
2022/03/12 06:24:48;;;;;;;17.50;8.40;;;5.30;1.00;;;;;;5055745;28;20397;-86
2022/03/12 06:27:17;;;;;;;19.83;9.30;;;5.70;1.00;;;;;;5053900;28;20190;-89
2022/03/12 06:29:45;;;;;;;22.43;10.10;;;6.00;1.00;;;;;;5052671;28;20612;-86
2022/03/12 06:32:14;;;;;;;20.57;10.33;;;6.40;1.00;;;;;;5055794;28;20199;-88
2022/03/12 06:34:41;;;;;;;22.80;10.40;;;6.50;1.00;;;;;;5053766;28;20195;-85
2022/03/12 06:37:10;;;;;;;24.73;10.80;;;6.60;1.00;;;;;;5055133;28;20193;-85
2022/03/12 06:39:38;;;;;;;24.10;10.27;;;6.50;1.00;;;;;;5055509;28;20200;-86
2022/03/12 06:42:06;;;;;;;22.17;10.47;;;6.30;1.00;;;;;;5057026;28;20250;-87
2022/03/12 06:44:33;;;;;;;19.33;9.63;;;6.10;1.00;;;;;;5056634;28;20199;-86
2022/03/12 06:47:08;;;;;;;21.13;10.37;;;6.20;1.00;;;;;;5058768;28;20194;-90
2022/03/12 06:49:38;;;;;;;23.73;10.60;;;6.10;1.00;;;;;;5061563;28;20210;-88
2022/03/12 06:52:06;;;;;;;27.07;11.93;;;5.80;1.00;;;;;;5058922;28;20176;-88
2022/03/12 06:54:39;;;;;;;21.57;11.37;;;5.70;1.00;;;;;;5059444;28;20188;-89
2022/03/12 06:57:06;;;;;;;18.77;10.43;;;5.80;1.00;;;;;;5056647;28;20591;-85
2022/03/12 06:59:34;;;;;;;16.70;8.60;;;5.80;1.00;;;;;;5059362;28;20184;-85
2022/03/12 07:02:06;;;;;;;25.23;10.57;;;5.90;1.00;;;;;;5059968;28;20205;-87
2022/03/12 07:04:40;;;;;;;23.67;10.60;;;6.20;1.00;;;;;;5061161;28;20194;-92
2022/03/12 07:07:07;;;;;;;26.77;14.97;;;6.70;1.00;;;;;;5056971;28;20282;-84
2022/03/12 07:09:36;;;;;;;21.70;10.17;;;7.40;1.00;;;;;;5054809;28;20269;-86
2022/03/12 07:12:03;;;;;;;21.63;11.27;;;8.20;1.00;;;;;;5060472;28;20210;-87
2022/03/12 07:14:31;;;;;;;21.57;9.87;;;9.10;1.00;;;;;;5056688;28;20197;-85
2022/03/12 07:16:58;;;;;;;19.53;10.53;;;10.00;1.00;;;;;;5058613;28;20216;-87
2022/03/12 07:19:25;;;;;;;23.77;11.03;;;10.50;1.00;;;;;;5055799;28;20246;-88
2022/03/12 07:21:58;;;;;;;24.33;11.20;;;11.10;1.00;;;;;;5054877;28;20305;-89
2022/03/12 07:24:25;;;;;;;21.10;11.37;;;11.60;1.00;;;;;;5052031;28;20601;-87
2022/03/12 07:26:54;;;;;;;20.63;9.87;;;11.80;1.00;;;;;;5059058;28;20196;-86
2022/03/12 07:29:21;;;;;;;18.93;10.50;;;12.30;1.00;;;;;;5056546;28;20262;-87
2022/03/12 07:31:48;;;;;;;22.03;10.33;;;12.50;1.00;;;;;;5054106;28;20653;-88
2022/03/12 07:34:15;;;;;;;23.20;11.07;;;12.70;1.00;;;;;;5054111;28;20203;-87
2022/03/12 07:36:43;;;;;;;20.75;11.00;;;13.20;1.00;;;;;;5053363;28;20225;-86
2022/03/12 07:39:10;;;;;;;22.25;12.57;;;13.60;1.00;;;;;;5055018;28;20232;-88
2022/03/12 07:41:37;;;;;;;20.83;11.75;;;14.00;1.00;;;;;;5056563;28;20198;-86
2022/03/12 07:44:07;;;;;;;26.20;13.82;;;14.40;1.00;;;;;;5054445;28;20200;-87
2022/03/12 07:46:34;;;;;;;18.35;11.18;;;14.40;1.00;;;;;;5056901;28;20279;-86
2022/03/12 07:49:03;;;;;;;28.13;16.17;;;14.70;1.00;;;;;;5055612;28;20727;-86
2022/03/12 07:51:30;;;;;;;23.52;13.10;;;14.80;1.00;;;;;;5055092;28;20217;-86
2022/03/12 07:54:03;;;;;;;24.90;13.40;;;15.10;1.00;;;;;;5055809;28;20562;-87
2022/03/12 07:56:30;;;;;;;21.08;11.50;;;15.30;1.00;;;;;;5057710;28;20192;-85
2022/03/12 07:58:57;;;;;;;23.02;13.25;;;15.30;1.00;;;;;;5057721;28;20597;-87
2022/03/12 08:01:25;;;;;;;32.10;21.85;;;15.30;1.00;;;;;;5058117;28;20205;-85
2022/03/12 08:03:52;;;;;;;23.58;12.82;;;15.30;1.00;;;;;;5060370;28;20204;-85
2022/03/12 08:06:28;;;;;;;26.48;14.63;;;15.70;1.00;;;;;;5067132;28;20287;-88
2022/03/12 08:08:57;;;;;;;18.85;11.07;;;15.70;1.00;;;;;;5061196;28;20177;-90
2022/03/12 08:11:29;;;;;;;23.48;12.00;;;15.60;1.00;;;;;;5058791;28;20216;-89
2022/03/12 08:14:02;;;;;;;18.63;11.35;;;15.60;1.00;;;;;;5062917;28;20197;-87
2022/03/12 08:16:31;;;;;;;26.73;13.02;;;15.70;1.00;;;;;;5043054;28;20187;-88
2022/03/12 08:18:59;;;;;;;23.98;12.02;;;15.80;1.00;;;;;;5042563;28;20194;-86
2022/03/12 08:21:26;;;;;;;25.50;14.10;;;16.00;1.00;;;;;;5042461;28;20233;-85
2022/03/12 08:23:53;;;;;;;25.98;14.10;;;16.30;1.00;;;;;;5055338;28;20196;-87
2022/03/12 08:26:21;;;;;;;24.92;13.98;;;16.70;1.00;;;;;;5057115;28;20243;-87
2022/03/12 08:28:54;;;;;;;23.13;14.10;;;16.90;1.00;;;;;;5060777;28;20197;-89
2022/03/12 08:31:21;;;;;;;24.58;12.98;;;16.80;1.00;;;;;;5059336;28;20738;-89
2022/03/12 08:33:50;;;;;;;30.92;15.60;;;16.80;1.00;;;;;;5058344;28;20189;-85
2022/03/12 08:36:21;;;;;;;22.45;11.77;;;17.00;1.00;;;;;;5058586;28;20224;-88
2022/03/12 08:38:48;;;;;;;45.65;20.58;;;17.10;1.00;;;;;;5054885;28;20272;-84
2022/03/12 08:41:16;;;;;;;23.40;12.48;;;17.10;1.00;;;;;;5055131;28;20661;-87
2022/03/12 08:43:43;;;;;;;57.78;25.40;;;17.30;1.00;;;;;;5061666;28;20196;-84
2022/03/12 08:46:10;;;;;;;25.38;13.25;;;17.40;1.00;;;;;;5059180;28;20224;-88
2022/03/12 08:48:39;;;;;;;25.30;13.50;;;17.60;1.00;;;;;;5054820;28;20234;-87
2022/03/12 08:51:08;;;;;;;21.38;12.02;;;17.60;1.00;;;;;;5057198;28;20212;-88
2022/03/12 08:53:36;;;;;;;23.98;12.93;;;17.70;1.00;;;;;;5056737;28;20662;-88
2022/03/12 08:56:05;;;;;;;30.60;15.98;;;17.60;1.00;;;;;;5058879;28;20193;-89
2022/03/12 08:58:33;;;;;;;25.33;14.10;;;17.40;1.00;;;;;;5068377;28;20208;-85
2022/03/12 09:01:02;;;;;;;30.63;14.50;;;17.30;1.00;;;;;;5054517;28;20239;-86
2022/03/12 09:03:30;;;;;;;39.42;19.15;;;17.20;1.00;;;;;;5068740;28;20269;-89
2022/03/12 09:05:57;;;;;;;73.60;31.63;;;17.20;1.00;;;;;;5054885;28;20653;-85
2022/03/12 09:08:33;;;;;;;70.55;28.88;;;17.20;1.00;;;;;;5068405;28;20223;-89
2022/03/12 09:11:00;;;;;;;24.30;12.68;;;17.50;1.00;;;;;;5061686;28;20673;-84
2022/03/12 09:13:27;;;;;;;26.55;13.57;;;17.70;1.00;;;;;;5063690;28;20197;-87
2022/03/12 09:15:54;;;;;;;19.23;11.10;;;17.60;1.00;;;;;;5054270;28;20254;-86
2022/03/12 09:18:21;;;;;;;22.33;12.30;;;17.40;1.00;;;;;;5064902;28;20646;-86
2022/03/12 09:20:49;;;;;;;22.58;13.63;;;17.30;1.00;;;;;;5062061;28;20671;-88
2022/03/12 09:23:18;;;;;;;23.13;13.25;;;16.90;1.00;;;;;;5058050;28;20227;-85
2022/03/12 09:25:47;;;;;;;21.17;11.68;;;16.40;1.00;;;;;;5057383;28;20225;-86
2022/03/12 09:28:15;;;;;;;26.33;13.70;;;16.50;1.00;;;;;;5056860;28;20242;-87
2022/03/12 09:30:42;;;;;;;32.10;16.23;;;16.70;1.00;;;;;;5062019;28;20213;-85
2022/03/12 09:33:12;;;;;;;29.20;16.20;;;16.70;1.00;;;;;;5058319;28;20250;-89
2022/03/12 09:35:42;;;;;;;18.10;11.02;;;16.70;1.00;;;;;;5053703;28;20227;-86
2022/03/12 09:38:10;;;;;;;23.33;12.85;;;16.70;1.00;;;;;;5055407;28;20200;-85
2022/03/12 09:40:38;;;;;;;20.45;10.65;;;16.50;1.00;;;;;;5064172;28;20552;-86
2022/03/12 09:43:06;;;;;;;23.80;13.60;;;16.40;1.00;;;;;;5054880;28;20189;-85
2022/03/12 09:45:34;;;;;;;17.95;11.13;;;16.10;1.00;;;;;;5040546;28;20209;-86
2022/03/12 09:48:02;;;;;;;18.60;10.77;;;16.10;1.00;;;;;;5044560;28;20196;-87
2022/03/12 09:50:30;;;;;;;17.02;10.43;;;16.00;1.00;;;;;;5057426;28;20215;-84
2022/03/12 09:53:00;;;;;;;20.77;12.20;;;15.90;1.00;;;;;;5072327;28;20668;-87
2022/03/12 09:55:28;;;;;;;16.23;9.57;;;16.00;1.00;;;;;;5080424;28;20604;-85
2022/03/12 09:57:55;;;;;;;24.80;14.68;;;16.00;1.00;;;;;;5060113;28;20219;-85
2022/03/12 10:00:25;;;;;;;19.02;10.63;;;15.50;1.00;;;;;;5056904;28;20195;-88
2022/03/12 10:02:54;;;;;;;20.47;12.07;;;15.00;1.00;;;;;;5052161;28;20193;-83
2022/03/12 10:05:22;;;;;;;18.50;10.80;;;14.40;1.00;;;;;;5060419;28;21038;-88
2022/03/12 10:07:49;;;;;;;22.07;11.27;;;14.00;1.00;;;;;;5054432;28;20187;-85
2022/03/12 10:10:22;;;;;;;18.33;10.00;;;13.50;1.00;;;;;;5062322;28;20192;-85
2022/03/12 10:12:53;;;;;;;19.87;9.53;;;13.30;1.00;;;;;;5052285;28;20175;-88
2022/03/12 10:15:22;;;;;;;18.70;11.23;;;13.00;1.00;;;;;;5056424;28;20694;-86
2022/03/12 10:17:51;;;;;;;18.93;10.43;;;12.60;1.00;;;;;;5059289;28;20191;-84
2022/03/12 10:20:18;;;;;;;14.97;8.37;;;12.40;1.00;;;;;;5056238;28;20194;-87
2022/03/12 10:22:46;;;;;;;18.90;10.00;;;12.10;1.00;;;;;;5056905;28;20248;-84
2022/03/12 10:25:14;;;;;;;23.43;11.77;;;11.80;1.00;;;;;;5054305;28;20201;-84
2022/03/12 10:27:44;;;;;;;19.63;10.60;;;11.70;1.00;;;;;;5056027;28;20191;-85
2022/03/12 10:30:12;;;;;;;18.40;9.83;;;11.50;1.00;;;;;;5055099;28;20279;-84
2022/03/12 10:32:45;;;;;;;18.93;10.10;;;11.40;1.00;;;;;;5055002;28;20263;-87
2022/03/12 10:35:15;;;;;;;16.17;9.03;;;11.30;1.00;;;;;;5054509;28;20607;-86
2022/03/12 10:37:42;;;;;;;17.87;9.63;;;11.30;1.00;;;;;;5059191;28;20193;-85
2022/03/12 10:40:11;;;;;;;16.00;9.57;;;11.30;1.00;;;;;;5056601;28;20256;-88
2022/03/12 10:42:44;;;;;;;18.57;9.47;;;11.30;1.00;;;;;;5053419;28;20196;-87
2022/03/12 10:45:13;;;;;;;15.47;9.10;;;11.20;1.00;;;;;;5053919;28;20185;-87
2022/03/12 10:47:45;;;;;;;18.83;8.90;;;11.20;1.00;;;;;;5057737;28;20195;-88
2022/03/12 10:50:15;;;;;;;17.13;8.80;;;11.10;1.00;;;;;;5059875;28;20177;-86
2022/03/12 10:52:47;;;;;;;16.80;8.47;;;11.10;1.00;;;;;;5056089;28;20190;-86
2022/03/12 10:55:19;;;;;;;22.53;11.93;;;11.00;1.00;;;;;;5054029;28;20737;-87
2022/03/12 10:57:57;;;;;;;15.07;8.60;;;11.00;1.00;;;;;;5058245;28;20277;-85
2022/03/12 11:00:32;;;;;;;16.77;7.87;;;10.90;1.00;;;;;;5057203;28;20198;-88
2022/03/12 11:03:03;;;;;;;15.83;7.90;;;10.80;1.00;;;;;;5056793;28;20186;-88
2022/03/12 11:05:34;;;;;;;17.20;8.40;;;10.70;1.00;;;;;;5060951;28;20222;-86
2022/03/12 11:08:11;;;;;;;20.07;9.27;;;10.70;1.00;;;;;;5062630;28;20285;-87
2022/03/12 11:10:46;;;;;;;16.67;8.17;;;10.60;1.00;;;;;;5057205;28;20529;-87
2022/03/12 11:13:28;;;;;;;13.17;7.50;;;10.60;1.00;;;;;;5044648;28;20634;-85
2022/03/12 11:16:20;;;;;;;16.20;8.20;;;10.70;1.00;;;;;;5061143;28;20245;-90
2022/03/12 11:19:14;;;;;;;119.17;58.87;;;10.80;1.00;;;;;;5059486;28;20243;-84
2022/03/12 11:21:44;;;;;;;65.00;32.10;;;10.70;1.00;;;;;;5063562;28;20244;-84
2022/03/12 11:24:16;;;;;;;109.40;55.73;;;10.70;1.00;;;;;;5060744;28;20200;-87
2022/03/12 11:26:51;;;;;;;46.30;29.17;;;10.70;1.00;;;;;;5059441;28;20180;-84
2022/03/12 11:29:20;;;;;;;23.43;11.87;;;10.80;1.00;;;;;;5057074;28;20214;-86
2022/03/12 11:31:50;;;;;;;76.80;32.97;;;10.80;1.00;;;;;;5054434;28;20222;-84
2022/03/12 11:34:22;;;;;;;34.50;15.73;;;10.90;1.00;;;;;;5056170;28;20661;-87
2022/03/12 11:37:04;;;;;;;14.97;8.40;;;10.90;1.00;;;;;;5059961;28;20182;-85
2022/03/12 11:39:33;;;;;;;19.03;9.23;;;10.90;1.00;;;;;;5060049;28;20208;-85
2022/03/12 11:42:02;;;;;;;14.17;7.53;;;10.80;1.00;;;;;;5055539;28;20194;-85
2022/03/12 11:44:30;;;;;;;20.03;10.07;;;10.80;1.00;;;;;;5058035;28;20248;-86
2022/03/12 11:46:57;;;;;;;10.80;6.80;;;10.80;1.00;;;;;;5057548;28;20198;-84
2022/03/12 11:49:27;;;;;;;14.80;8.43;;;11.00;1.00;;;;;;5058777;28;20193;-86
2022/03/12 11:51:56;;;;;;;18.03;8.67;;;11.00;1.00;;;;;;5055153;28;20215;-86
2022/03/12 11:54:24;;;;;;;16.27;8.13;;;10.90;1.00;;;;;;5056519;28;20199;-85
2022/03/12 11:56:51;;;;;;;21.70;11.27;;;10.90;1.00;;;;;;5057373;28;20221;-85
2022/03/12 11:59:19;;;;;;;13.53;7.73;;;10.90;1.00;;;;;;5059390;28;20231;-86
2022/03/12 12:02:01;;;;;;;16.63;7.97;;;10.90;1.00;;;;;;5065228;28;20201;-85
2022/03/12 12:04:32;;;;;;;13.00;7.10;;;10.90;1.00;;;;;;5061970;28;20185;-87
2022/03/12 12:07:01;;;;;;;15.20;7.43;;;10.90;1.00;;;;;;5059395;28;20248;-87
2022/03/12 12:09:29;;;;;;;16.23;8.60;;;10.90;1.00;;;;;;5061659;28;20257;-85
2022/03/12 12:11:56;;;;;;;18.37;9.73;;;10.90;1.00;;;;;;5066415;28;20217;-85
2022/03/12 12:14:25;;;;;;;18.77;9.77;;;10.80;1.00;;;;;;5067278;28;20210;-87
2022/03/12 12:16:58;;;;;;;17.13;9.00;;;10.80;1.00;;;;;;5061038;28;20200;-90
2022/03/12 12:19:27;;;;;;;18.73;10.53;;;10.80;1.00;;;;;;5060174;28;20198;-87
2022/03/12 12:21:56;;;;;;;22.40;11.37;;;10.80;1.00;;;;;;5065616;28;20233;-85
2022/03/12 12:24:30;;;;;;;13.23;7.23;;;10.80;1.00;;;;;;5065592;28;20215;-85
2022/03/12 12:26:59;;;;;;;18.10;8.50;;;10.90;1.00;;;;;;5065903;28;20194;-86
2022/03/12 12:29:46;;;;;;;14.83;7.73;;;10.90;1.00;;;;;;5066052;28;20229;-89
2022/03/12 12:32:15;;;;;;;18.00;9.50;;;10.90;1.00;;;;;;5065688;28;20207;-86
2022/03/12 12:35:13;;;;;;;15.53;8.60;;;10.90;1.00;;;;;;5066429;28;20197;-85
2022/03/12 12:37:55;;;;;;;18.63;10.00;;;10.90;1.00;;;;;;5065623;28;20194;-88
2022/03/12 12:40:31;;;;;;;13.10;7.40;;;11.00;1.00;;;;;;5067290;28;20192;-90
2022/03/12 12:43:02;;;;;;;15.20;8.23;;;11.00;1.00;;;;;;5064201;28;20218;-84
2022/03/12 12:45:32;;;;;;;14.70;8.00;;;11.00;1.00;;;;;;5060559;28;20183;-85
2022/03/12 12:48:12;;;;;;;14.70;7.87;;;11.00;1.00;;;;;;5062301;28;20198;-84
2022/03/12 12:50:41;;;;;;;14.80;8.00;;;11.00;1.00;;;;;;5056483;28;20197;-85
2022/03/12 12:53:12;;;;;;;16.20;9.13;;;11.00;1.00;;;;;;5063119;28;20599;-84
2022/03/12 12:55:41;;;;;;;13.67;7.60;;;11.00;1.00;;;;;;5062346;28;20182;-88